Time;durP1;ratioP1;P1;durP2;ratioP2;P2;SDS_P1;SDS_P2;PMS_P1;PMS_P2;Temp;Humidity;BMP_temperature;BMP_pressure;BME280_temperature;BME280_humidity;BME280_pressure;Samples;Min_cycle;Max_cycle;Signal;HPM_P1;HPM_P2
2021/12/06 00:01:43;;;;;;;19.90;15.97;;;6.60;99.90;;;;;;5008015;28;20212;-24
2021/12/06 00:04:18;;;;;;;21.30;16.10;;;6.50;99.90;;;;;;5008185;28;20228;-24
2021/12/06 00:06:53;;;;;;;21.00;16.07;;;6.40;99.90;;;;;;5010807;28;20249;-24
2021/12/06 00:09:25;;;;;;;21.67;17.80;;;6.40;99.90;;;;;;5012091;28;20209;-24
2021/12/06 00:11:58;;;;;;;21.60;17.67;;;6.30;99.90;;;;;;5011368;28;20205;-24
2021/12/06 00:14:30;;;;;;;23.73;16.77;;;6.30;99.90;;;;;;5008466;28;20213;-24
2021/12/06 00:17:00;;;;;;;20.23;16.60;;;6.30;99.90;;;;;;5009327;28;20211;-24
2021/12/06 00:19:28;;;;;;;21.27;16.93;;;6.20;99.90;;;;;;5009509;28;20621;-24
2021/12/06 00:21:57;;;;;;;21.43;16.53;;;6.20;99.90;;;;;;5017344;28;20201;-24
2021/12/06 00:24:25;;;;;;;19.20;16.10;;;6.10;99.90;;;;;;5027778;28;20213;-24
2021/12/06 00:26:55;;;;;;;21.10;16.67;;;6.10;99.90;;;;;;5011401;28;20213;-24
2021/12/06 00:29:23;;;;;;;20.43;16.50;;;6.00;99.90;;;;;;5009671;28;20197;-24
2021/12/06 00:31:51;;;;;;;21.00;16.23;;;5.90;99.90;;;;;;5015987;28;20193;-25
2021/12/06 00:34:22;;;;;;;19.93;15.90;;;5.90;99.90;;;;;;5020746;28;20221;-24
2021/12/06 00:37:04;;;;;;;20.27;16.33;;;5.90;99.90;;;;;;5011718;28;20201;-24
2021/12/06 00:39:32;;;;;;;20.80;15.97;;;5.80;99.90;;;;;;5014097;28;20256;-24
2021/12/06 00:42:03;;;;;;;20.13;16.23;;;5.70;99.90;;;;;;5011198;28;20220;-24
2021/12/06 00:44:31;;;;;;;19.17;15.87;;;5.70;99.90;;;;;;5025352;28;20235;-24
2021/12/06 00:47:00;;;;;;;17.60;15.00;;;5.70;99.90;;;;;;5030252;28;20201;-24
2021/12/06 00:49:27;;;;;;;20.10;15.97;;;5.60;99.90;;;;;;5021176;28;20269;-24
2021/12/06 00:51:54;;;;;;;20.43;15.30;;;5.60;99.90;;;;;;5009868;28;20217;-24
2021/12/06 00:54:21;;;;;;;20.10;15.23;;;5.50;99.90;;;;;;5018572;28;20713;-24
2021/12/06 00:56:49;;;;;;;20.07;16.00;;;5.50;99.90;;;;;;5022752;28;20295;-25
2021/12/06 00:59:16;;;;;;;20.13;15.70;;;5.50;99.90;;;;;;5012099;28;20228;-24
2021/12/06 01:01:43;;;;;;;21.27;15.77;;;5.50;99.90;;;;;;5015950;28;20218;-24
2021/12/06 01:04:11;;;;;;;20.67;15.73;;;5.40;99.90;;;;;;5008886;28;20251;-24
2021/12/06 01:06:41;;;;;;;19.70;15.30;;;5.40;99.90;;;;;;5023488;28;20221;-24
2021/12/06 01:09:08;;;;;;;19.03;16.13;;;5.30;99.90;;;;;;5014298;28;20222;-24
2021/12/06 01:11:36;;;;;;;20.93;15.87;;;5.30;99.90;;;;;;5010003;28;20232;-24
2021/12/06 01:14:03;;;;;;;20.13;15.40;;;5.30;99.90;;;;;;5023102;28;20201;-24
2021/12/06 01:16:33;;;;;;;18.77;15.47;;;5.20;99.90;;;;;;5017602;28;20221;-24
2021/12/06 01:19:00;;;;;;;19.27;15.93;;;5.20;99.90;;;;;;5012771;28;20300;-24
2021/12/06 01:21:41;;;;;;;21.03;15.60;;;5.20;99.90;;;;;;5009703;28;20217;-24
2021/12/06 01:24:16;;;;;;;18.83;15.73;;;5.10;99.90;;;;;;5016405;28;20221;-25
2021/12/06 01:32:11;;;;;;;19.37;15.20;;;5.00;99.90;;;;;;5009664;28;20712;-24
2021/12/06 01:40:20;;;;;;;19.63;15.77;;;4.90;99.90;;;;;;5027469;28;20567;-26
2021/12/06 01:42:48;;;;;;;20.27;15.53;;;4.90;99.90;;;;;;5022735;28;20300;-26
2021/12/06 01:45:16;;;;;;;21.07;16.37;;;4.80;99.90;;;;;;5009568;28;20225;-26
2021/12/06 01:47:46;;;;;;;22.23;16.10;;;4.80;99.90;;;;;;5012722;28;20484;-26
2021/12/06 01:50:24;;;;;;;20.30;15.87;;;4.80;99.90;;;;;;5026701;28;20631;-26
2021/12/06 01:52:58;;;;;;;21.17;16.63;;;4.70;99.90;;;;;;5014222;28;20239;-26
2021/12/06 01:55:29;;;;;;;21.40;16.20;;;4.70;99.90;;;;;;5008998;28;20202;-26
2021/12/06 01:57:58;;;;;;;23.47;16.80;;;4.70;99.90;;;;;;5024634;28;20205;-26
2021/12/06 02:00:36;;;;;;;22.27;17.43;;;4.70;99.90;;;;;;5020549;28;20204;-26
2021/12/06 02:03:04;;;;;;;23.00;17.83;;;4.70;99.90;;;;;;5023642;28;20228;-26
2021/12/06 02:05:33;;;;;;;24.30;17.63;;;4.70;99.90;;;;;;5025855;28;20233;-26
2021/12/06 02:08:01;;;;;;;23.23;18.17;;;4.80;99.90;;;;;;5019756;28;20209;-26
2021/12/06 02:10:28;;;;;;;21.20;17.60;;;4.80;99.90;;;;;;5028768;28;20225;-25
2021/12/06 02:12:56;;;;;;;25.33;18.97;;;4.90;99.90;;;;;;5017464;28;20204;-24
2021/12/06 02:18:07;;;;;;;22.60;17.80;;;5.00;99.90;;;;;;5018356;28;20216;-24
2021/12/06 02:20:45;;;;;;;26.00;17.30;;;5.00;99.90;;;;;;5027660;28;20311;-24
2021/12/06 02:23:13;;;;;;;26.83;19.03;;;5.10;99.90;;;;;;5022749;28;20212;-24
2021/12/06 02:25:40;;;;;;;27.90;18.17;;;5.10;99.90;;;;;;5015397;28;20690;-24
2021/12/06 02:28:12;;;;;;;24.20;18.30;;;5.20;99.90;;;;;;5025441;28;20683;-24
2021/12/06 02:30:40;;;;;;;27.17;20.23;;;5.20;99.90;;;;;;5025892;28;20193;-24
2021/12/06 02:33:07;;;;;;;26.13;19.77;;;5.30;99.90;;;;;;5012435;28;20289;-24
2021/12/06 02:35:34;;;;;;;25.93;18.70;;;5.30;99.90;;;;;;5008452;28;20217;-24
2021/12/06 02:38:07;;;;;;;26.87;19.67;;;5.40;99.90;;;;;;5007702;28;20653;-24
2021/12/06 02:40:36;;;;;;;25.37;18.87;;;5.40;99.90;;;;;;5009300;28;20204;-24
2021/12/06 02:43:06;;;;;;;25.63;19.23;;;5.40;99.90;;;;;;5007868;28;20210;-25
2021/12/06 02:45:34;;;;;;;24.27;18.83;;;5.40;99.90;;;;;;5011036;28;20220;-24
2021/12/06 02:48:05;;;;;;;26.07;19.50;;;5.50;99.90;;;;;;5026514;28;20207;-24
2021/12/06 02:50:39;;;;;;;27.57;19.40;;;5.50;99.90;;;;;;5016125;28;20233;-24
2021/12/06 02:53:09;;;;;;;25.60;19.30;;;5.50;99.90;;;;;;5008023;28;20205;-24
2021/12/06 02:55:40;;;;;;;26.50;19.73;;;5.50;99.90;;;;;;5008431;28;20795;-24
2021/12/06 02:58:22;;;;;;;28.70;19.30;;;5.40;99.90;;;;;;5007273;28;20590;-24
2021/12/06 03:00:55;;;;;;;26.57;18.40;;;5.40;99.90;;;;;;5007470;28;20202;-24
2021/12/06 03:03:25;;;;;;;29.80;19.63;;;5.40;99.90;;;;;;5021501;28;20399;-24
2021/12/06 03:05:53;;;;;;;25.17;18.63;;;5.40;99.90;;;;;;5022524;28;20225;-24
2021/12/06 03:08:46;;;;;;;26.27;19.03;;;5.40;99.90;;;;;;5007433;28;20205;-24
2021/12/06 03:11:23;;;;;;;27.70;18.87;;;5.40;99.90;;;;;;5007602;28;20224;-24
2021/12/06 03:13:51;;;;;;;30.80;20.47;;;5.40;99.90;;;;;;5016576;28;20219;-24
2021/12/06 03:16:18;;;;;;;32.47;20.57;;;5.40;99.90;;;;;;5016947;28;20822;-24
2021/12/06 03:18:48;;;;;;;31.63;20.90;;;5.40;99.90;;;;;;5012393;28;20280;-24
2021/12/06 03:21:17;;;;;;;31.30;20.53;;;5.40;99.90;;;;;;5013118;28;20555;-24
2021/12/06 03:23:49;;;;;;;29.33;20.13;;;5.40;99.90;;;;;;5009780;28;20208;-24
2021/12/06 03:26:17;;;;;;;30.13;20.60;;;5.40;99.90;;;;;;5008459;28;20225;-24
2021/12/06 03:28:45;;;;;;;34.37;21.47;;;5.40;99.90;;;;;;5014283;28;20216;-24
2021/12/06 03:31:13;;;;;;;30.50;20.73;;;5.40;99.90;;;;;;5019824;28;20201;-24
2021/12/06 03:33:44;;;;;;;32.57;20.57;;;5.40;99.90;;;;;;5021711;28;20645;-24
2021/12/06 03:36:12;;;;;;;35.63;21.37;;;5.40;99.90;;;;;;5009131;28;20198;-24
2021/12/06 03:38:39;;;;;;;36.27;21.67;;;5.40;99.90;;;;;;5005534;28;20684;-24
2021/12/06 03:41:09;;;;;;;38.90;22.17;;;5.40;99.90;;;;;;5011008;28;20198;-24
2021/12/06 03:43:43;;;;;;;40.07;23.00;;;5.50;99.90;;;;;;5017429;28;20209;-24
2021/12/06 03:46:15;;;;;;;53.40;27.73;;;5.50;99.90;;;;;;5011643;28;20221;-24
2021/12/06 03:48:43;;;;;;;54.73;28.23;;;5.50;99.90;;;;;;5011322;28;20572;-25
2021/12/06 03:51:10;;;;;;;59.80;28.30;;;5.50;99.90;;;;;;5011264;28;20233;-24
2021/12/06 03:53:38;;;;;;;54.20;27.47;;;5.50;99.90;;;;;;5010895;28;20566;-24
2021/12/06 03:56:05;;;;;;;58.33;28.50;;;5.50;99.90;;;;;;5026360;28;20551;-24
2021/12/06 03:58:34;;;;;;;58.87;27.60;;;5.50;99.90;;;;;;5010440;28;20221;-24
2021/12/06 04:01:03;;;;;;;57.10;27.77;;;5.50;99.90;;;;;;5013225;28;20206;-24
2021/12/06 04:03:36;;;;;;;55.87;28.30;;;5.50;99.90;;;;;;5018567;28;20232;-24
2021/12/06 04:06:05;;;;;;;53.83;29.07;;;5.50;99.90;;;;;;5025618;28;20231;-24
2021/12/06 04:08:32;;;;;;;64.57;30.53;;;5.50;99.90;;;;;;5009484;28;20202;-24
2021/12/06 04:11:00;;;;;;;58.20;28.70;;;5.50;99.90;;;;;;5011506;28;20192;-24
2021/12/06 04:13:28;;;;;;;66.50;28.97;;;5.50;99.90;;;;;;5017815;28;20292;-24
2021/12/06 04:15:57;;;;;;;61.13;28.87;;;5.60;99.90;;;;;;5022398;28;20259;-24
2021/12/06 04:18:24;;;;;;;55.53;30.23;;;5.50;99.90;;;;;;5023656;28;20238;-24
2021/12/06 04:20:53;;;;;;;71.20;30.37;;;5.60;99.90;;;;;;5011040;28;20201;-24
2021/12/06 04:23:22;;;;;;;63.60;31.23;;;5.50;99.90;;;;;;5010914;28;20210;-24
2021/12/06 04:25:50;;;;;;;59.10;30.13;;;5.60;99.90;;;;;;4998746;28;20220;-24
2021/12/06 04:28:20;;;;;;;59.93;29.77;;;5.60;99.90;;;;;;5012500;28;20666;-24
2021/12/06 04:30:49;;;;;;;64.77;31.87;;;5.50;99.90;;;;;;5009231;28;20702;-25
2021/12/06 04:33:18;;;;;;;70.20;32.03;;;5.60;99.90;;;;;;5009885;28;20235;-24
2021/12/06 04:35:46;;;;;;;64.57;30.80;;;5.50;99.90;;;;;;5011065;28;20213;-24
2021/12/06 04:38:15;;;;;;;61.70;29.73;;;5.50;99.90;;;;;;5027468;28;20197;-24
2021/12/06 04:40:44;;;;;;;63.57;29.07;;;5.50;99.90;;;;;;5020879;28;20193;-24
2021/12/06 04:43:14;;;;;;;71.03;30.93;;;5.50;99.90;;;;;;5028165;28;20216;-24
2021/12/06 04:45:44;;;;;;;63.07;30.77;;;5.50;99.90;;;;;;5017259;28;20583;-24
2021/12/06 04:48:11;;;;;;;84.30;29.10;;;5.50;99.90;;;;;;5011749;28;20305;-24
2021/12/06 04:50:42;;;;;;;57.03;30.30;;;5.50;99.90;;;;;;5010336;28;20747;-24
2021/12/06 04:53:14;;;;;;;54.13;29.47;;;5.50;99.90;;;;;;5008895;28;20232;-24
2021/12/06 04:56:05;;;;;;;60.10;28.97;;;5.50;99.90;;;;;;5010349;28;20201;-24
2021/12/06 04:58:41;;;;;;;49.83;27.90;;;5.50;99.90;;;;;;5013452;28;20249;-24
2021/12/06 05:01:17;;;;;;;65.27;27.47;;;5.40;99.90;;;;;;5015548;28;20209;-24
2021/12/06 05:03:51;;;;;;;50.27;27.03;;;5.40;99.90;;;;;;5009754;28;20209;-24
2021/12/06 05:06:27;;;;;;;48.17;25.40;;;5.40;99.90;;;;;;5014027;28;20243;-24
2021/12/06 05:08:58;;;;;;;49.57;25.57;;;5.40;99.90;;;;;;5027841;28;20246;-24
2021/12/06 05:11:29;;;;;;;46.97;26.03;;;5.40;99.90;;;;;;5014674;28;20197;-24
2021/12/06 05:14:01;;;;;;;49.00;26.80;;;5.40;99.90;;;;;;5025437;28;20247;-24
2021/12/06 05:16:29;;;;;;;45.83;25.93;;;5.40;99.90;;;;;;5010229;28;20263;-24
2021/12/06 05:18:59;;;;;;;54.07;28.20;;;5.40;99.90;;;;;;5013130;28;20787;-24
2021/12/06 05:21:26;;;;;;;58.57;27.73;;;5.40;99.90;;;;;;5010817;28;20626;-24
2021/12/06 05:23:56;;;;;;;59.10;27.30;;;5.40;99.90;;;;;;5009665;28;20252;-25
2021/12/06 05:26:23;;;;;;;41.80;25.23;;;5.40;99.90;;;;;;5015755;28;20211;-24
2021/12/06 05:28:55;;;;;;;45.07;26.93;;;5.40;99.90;;;;;;5027495;28;20227;-24
2021/12/06 05:31:23;;;;;;;49.57;25.50;;;5.40;99.90;;;;;;5020013;28;20205;-24
2021/12/06 05:33:55;;;;;;;49.40;27.50;;;5.40;99.90;;;;;;5008669;28;20248;-24
2021/12/06 05:36:23;;;;;;;42.10;25.50;;;5.30;99.90;;;;;;5009907;28;20205;-24
2021/12/06 05:38:53;;;;;;;51.57;28.17;;;5.30;99.90;;;;;;5007956;28;20675;-24
2021/12/06 05:41:20;;;;;;;42.73;25.53;;;5.30;99.90;;;;;;5022737;28;20583;-25
2021/12/06 05:43:47;;;;;;;47.57;27.90;;;5.30;99.90;;;;;;5026637;28;20682;-24
2021/12/06 05:46:15;;;;;;;46.17;27.90;;;5.30;99.90;;;;;;5021112;28;20804;-24
2021/12/06 05:48:45;;;;;;;45.50;26.10;;;5.30;99.90;;;;;;5008632;28;20683;-24
2021/12/06 05:51:12;;;;;;;48.37;26.27;;;5.30;99.90;;;;;;5016910;28;20275;-24
2021/12/06 05:53:42;;;;;;;44.73;26.30;;;5.30;99.90;;;;;;5016057;28;20213;-24
2021/12/06 05:56:12;;;;;;;46.97;27.03;;;5.30;99.90;;;;;;5009777;28;20312;-24
2021/12/06 05:58:40;;;;;;;44.30;25.43;;;5.30;99.90;;;;;;5010855;28;20221;-24
2021/12/06 06:01:12;;;;;;;51.73;27.20;;;5.30;99.90;;;;;;5019129;28;20305;-24
2021/12/06 06:03:44;;;;;;;51.40;27.43;;;5.30;99.90;;;;;;5024900;28;20586;-24
2021/12/06 06:06:11;;;;;;;44.20;26.90;;;5.30;99.90;;;;;;5019239;28;20684;-24
2021/12/06 06:08:39;;;;;;;55.80;29.43;;;5.30;99.90;;;;;;5022915;28;20205;-24
2021/12/06 06:11:06;;;;;;;47.03;27.20;;;5.30;99.90;;;;;;5021030;28;20207;-24
2021/12/06 06:13:33;;;;;;;52.70;28.03;;;5.30;99.90;;;;;;5019861;28;20215;-24
2021/12/06 06:16:03;;;;;;;53.53;27.27;;;5.30;99.90;;;;;;5022257;28;20217;-24
2021/12/06 06:18:31;;;;;;;50.87;27.00;;;5.30;99.90;;;;;;5021791;28;20703;-24
2021/12/06 06:21:00;;;;;;;46.43;26.67;;;5.30;99.90;;;;;;5015878;28;20233;-24
2021/12/06 06:23:28;;;;;;;46.37;26.60;;;5.30;99.90;;;;;;5021770;28;20215;-24
2021/12/06 06:25:58;;;;;;;48.53;26.10;;;5.30;99.90;;;;;;5033634;28;20235;-24
2021/12/06 06:28:28;;;;;;;47.07;26.10;;;5.30;99.90;;;;;;5025604;28;20543;-24
2021/12/06 06:30:55;;;;;;;47.93;26.27;;;5.30;99.90;;;;;;5010602;28;20304;-24
2021/12/06 06:33:25;;;;;;;49.63;25.30;;;5.30;99.90;;;;;;5025484;28;20197;-24
2021/12/06 06:35:52;;;;;;;47.17;25.70;;;5.30;99.90;;;;;;5023451;28;20217;-24
2021/12/06 06:38:20;;;;;;;38.07;24.83;;;5.30;99.90;;;;;;5008077;28;20210;-24
2021/12/06 06:40:47;;;;;;;39.00;24.50;;;5.30;99.90;;;;;;5007733;28;20626;-24
2021/12/06 06:43:18;;;;;;;43.07;27.33;;;5.30;99.90;;;;;;5011009;28;20213;-24
2021/12/06 06:45:45;;;;;;;43.33;25.47;;;5.30;99.90;;;;;;5024698;28;20223;-24
2021/12/06 06:48:12;;;;;;;38.67;23.40;;;5.30;99.90;;;;;;5012662;28;20560;-24
2021/12/06 06:50:40;;;;;;;39.07;23.27;;;5.20;99.90;;;;;;5016131;28;20719;-24
2021/12/06 06:53:07;;;;;;;38.37;23.67;;;5.20;99.90;;;;;;5017847;28;20259;-24
2021/12/06 06:55:34;;;;;;;36.20;22.87;;;5.20;99.90;;;;;;5027978;28;20201;-24
2021/12/06 06:58:04;;;;;;;36.93;22.47;;;5.20;99.90;;;;;;5009245;28;20607;-24
2021/12/06 07:00:35;;;;;;;36.07;22.93;;;5.20;99.90;;;;;;5008015;28;20197;-26
2021/12/06 07:03:08;;;;;;;36.00;22.73;;;5.20;99.90;;;;;;5007466;28;20692;-26
2021/12/06 07:05:36;;;;;;;34.27;21.63;;;5.20;99.90;;;;;;5026458;28;20227;-26
2021/12/06 07:08:04;;;;;;;36.17;23.13;;;5.20;99.90;;;;;;5025031;28;20197;-26
2021/12/06 07:10:32;;;;;;;35.00;22.03;;;5.20;99.90;;;;;;5013901;28;20220;-26
2021/12/06 07:13:04;;;;;;;34.07;21.77;;;5.20;99.90;;;;;;5023651;28;20204;-26
2021/12/06 07:15:37;;;;;;;36.20;22.70;;;5.20;99.90;;;;;;5030289;28;20193;-26
2021/12/06 07:18:06;;;;;;;34.17;22.90;;;5.20;99.90;;;;;;5008304;28;20316;-26
2021/12/06 07:20:34;;;;;;;37.60;20.73;;;5.10;99.90;;;;;;5007788;28;20197;-26
2021/12/06 07:23:03;;;;;;;36.97;22.73;;;5.10;99.90;;;;;;5007319;28;20209;-26
2021/12/06 07:25:31;;;;;;;33.20;22.27;;;5.10;99.90;;;;;;5007221;28;20205;-26
2021/12/06 07:27:59;;;;;;;33.60;20.47;;;5.10;99.90;;;;;;5007576;28;20686;-26
2021/12/06 07:30:26;;;;;;;38.10;22.80;;;5.10;99.90;;;;;;5008760;28;20211;-25
2021/12/06 07:32:57;;;;;;;33.87;22.63;;;5.10;99.90;;;;;;5009612;28;20204;-26
2021/12/06 07:35:26;;;;;;;29.07;21.40;;;5.10;99.90;;;;;;5011773;28;20599;-26
2021/12/06 07:37:53;;;;;;;32.30;21.50;;;5.10;99.90;;;;;;5017734;28;20208;-26
2021/12/06 07:40:20;;;;;;;31.47;21.67;;;5.10;99.90;;;;;;5026787;28;20291;-26
2021/12/06 07:42:52;;;;;;;30.70;20.97;;;5.10;99.90;;;;;;5026487;28;20266;-26
2021/12/06 07:45:20;;;;;;;30.03;20.53;;;5.10;99.90;;;;;;5015690;28;20217;-25
2021/12/06 07:47:48;;;;;;;28.63;20.50;;;5.10;99.90;;;;;;5011213;28;20622;-26
2021/12/06 07:50:19;;;;;;;28.93;20.67;;;5.10;99.90;;;;;;5007413;28;20237;-26
2021/12/06 07:52:49;;;;;;;31.17;21.37;;;5.00;99.90;;;;;;5007269;28;20608;-26
2021/12/06 07:55:20;;;;;;;27.23;19.17;;;5.00;99.90;;;;;;5007588;28;20272;-26
2021/12/06 07:57:48;;;;;;;37.33;20.77;;;5.00;99.90;;;;;;5007014;28;20198;-26
2021/12/06 08:00:23;;;;;;;29.47;20.87;;;5.00;99.90;;;;;;4997439;28;20554;-26
2021/12/06 08:02:53;;;;;;;31.40;20.97;;;5.00;99.90;;;;;;5020518;28;20600;-26
2021/12/06 08:05:31;;;;;;;30.17;21.13;;;5.00;99.90;;;;;;5014235;28;20233;-26
2021/12/06 08:08:05;;;;;;;30.13;20.53;;;5.00;99.90;;;;;;5021104;28;20673;-26
2021/12/06 08:10:36;;;;;;;26.17;18.67;;;5.00;99.90;;;;;;5008524;28;20225;-26
2021/12/06 08:13:05;;;;;;;28.00;19.67;;;5.00;99.90;;;;;;5006420;28;20619;-26
2021/12/06 08:15:33;;;;;;;26.70;19.53;;;4.90;99.90;;;;;;5015522;28;20204;-26
2021/12/06 08:18:00;;;;;;;27.73;19.63;;;5.00;99.90;;;;;;5026554;28;20207;-26
2021/12/06 08:20:28;;;;;;;28.83;19.43;;;5.00;99.90;;;;;;5007315;28;20218;-25
2021/12/06 08:22:57;;;;;;;26.50;18.13;;;4.90;99.90;;;;;;5022435;28;20209;-26
2021/12/06 08:25:25;;;;;;;25.97;18.33;;;4.90;99.90;;;;;;5027228;28;20218;-26
2021/12/06 08:27:52;;;;;;;25.07;17.60;;;4.90;99.90;;;;;;5011202;28;20605;-26
2021/12/06 08:30:24;;;;;;;25.87;18.47;;;4.90;99.90;;;;;;5011111;28;20630;-26
2021/12/06 08:32:55;;;;;;;26.63;18.23;;;4.90;99.90;;;;;;5010371;28;20217;-26
2021/12/06 08:35:35;;;;;;;26.40;18.43;;;4.90;99.90;;;;;;5010564;28;20194;-26
2021/12/06 08:38:04;;;;;;;24.83;18.23;;;4.90;99.90;;;;;;5018000;28;20216;-26
2021/12/06 08:40:32;;;;;;;29.53;18.77;;;4.90;99.90;;;;;;5027510;28;20308;-26
2021/12/06 08:42:59;;;;;;;28.30;19.63;;;4.80;99.90;;;;;;5026901;28;20212;-26
2021/12/06 08:45:31;;;;;;;27.73;19.17;;;4.80;99.90;;;;;;5010583;28;20202;-26
2021/12/06 08:48:00;;;;;;;28.27;19.50;;;4.80;99.90;;;;;;5012413;28;20270;-26
2021/12/06 08:50:29;;;;;;;29.20;19.20;;;4.90;99.90;;;;;;5008823;28;20237;-26
2021/12/06 08:52:56;;;;;;;27.63;18.93;;;4.90;99.90;;;;;;5012405;28;20198;-26
2021/12/06 08:55:24;;;;;;;29.63;19.27;;;4.90;99.90;;;;;;5022565;28;20221;-26
2021/12/06 08:57:53;;;;;;;28.47;19.73;;;4.90;99.90;;;;;;5024165;28;20759;-26
2021/12/06 09:00:26;;;;;;;26.47;18.60;;;4.90;99.90;;;;;;5021869;28;20210;-26
2021/12/06 09:02:54;;;;;;;25.47;17.30;;;4.90;99.90;;;;;;5013913;28;20210;-26
2021/12/06 09:05:28;;;;;;;24.73;17.37;;;5.00;99.90;;;;;;5009514;28;20202;-26
2021/12/06 09:08:01;;;;;;;26.70;18.23;;;5.00;99.90;;;;;;5007892;28;20229;-25
2021/12/06 09:10:30;;;;;;;28.17;17.30;;;5.00;99.90;;;;;;5009189;28;20217;-26
2021/12/06 09:13:00;;;;;;;24.03;17.70;;;5.00;99.90;;;;;;5018141;28;20213;-26
2021/12/06 09:15:28;;;;;;;26.00;17.63;;;5.00;99.90;;;;;;5028548;28;20205;-25
2021/12/06 09:17:56;;;;;;;27.37;18.27;;;5.00;99.90;;;;;;5019910;28;20248;-26
2021/12/06 09:20:27;;;;;;;23.60;16.40;;;5.00;99.90;;;;;;5028290;28;20299;-26
2021/12/06 09:22:55;;;;;;;23.93;17.77;;;5.00;99.90;;;;;;5029522;28;20571;-26
2021/12/06 09:25:23;;;;;;;23.47;17.10;;;5.00;99.90;;;;;;5028595;28;20299;-26
2021/12/06 09:27:50;;;;;;;24.90;16.83;;;5.00;99.90;;;;;;5028481;28;20241;-26
2021/12/06 09:30:24;;;;;;;24.67;17.63;;;5.00;99.90;;;;;;5017496;28;20679;-25
2021/12/06 09:32:52;;;;;;;24.37;17.40;;;5.00;99.90;;;;;;5023631;28;20312;-26
2021/12/06 09:35:25;;;;;;;23.97;17.63;;;5.00;99.90;;;;;;5020129;28;20817;-26
2021/12/06 09:37:54;;;;;;;23.57;17.80;;;5.00;99.90;;;;;;5018526;28;20295;-26
2021/12/06 09:40:26;;;;;;;22.13;17.60;;;5.00;99.90;;;;;;5016978;28;20205;-26
2021/12/06 09:42:54;;;;;;;21.67;15.87;;;5.00;99.90;;;;;;5028272;28;20296;-26
2021/12/06 09:45:25;;;;;;;20.63;15.97;;;5.00;99.90;;;;;;5023506;28;20327;-26
2021/12/06 09:47:53;;;;;;;23.40;16.43;;;5.00;99.90;;;;;;5025299;28;20270;-26
2021/12/06 09:50:25;;;;;;;25.23;17.20;;;5.00;99.90;;;;;;5027378;28;20268;-26
2021/12/06 09:52:55;;;;;;;25.33;17.37;;;5.00;99.90;;;;;;5028405;28;20872;-26
2021/12/06 09:55:24;;;;;;;26.47;17.90;;;5.00;99.90;;;;;;5020454;28;20259;-26
2021/12/06 09:57:51;;;;;;;26.10;18.70;;;5.00;99.90;;;;;;5008135;28;20218;-26
2021/12/06 10:00:24;;;;;;;26.63;18.53;;;5.10;99.90;;;;;;5011315;28;20648;-25
2021/12/06 10:02:53;;;;;;;30.27;19.50;;;5.10;99.90;;;;;;5009320;28;20218;-26
2021/12/06 10:05:26;;;;;;;34.30;20.47;;;5.10;99.90;;;;;;5017064;28;20232;-26
2021/12/06 10:07:55;;;;;;;44.23;21.37;;;5.10;99.90;;;;;;5010575;28;20213;-26
2021/12/06 10:10:24;;;;;;;31.87;20.03;;;5.10;99.90;;;;;;5009783;28;20639;-26
2021/12/06 10:12:54;;;;;;;34.27;20.20;;;5.10;99.90;;;;;;5007929;28;20213;-26
2021/12/06 10:15:28;;;;;;;34.87;21.67;;;5.20;99.90;;;;;;5009063;28;20212;-26
2021/12/06 10:17:57;;;;;;;37.23;21.63;;;5.20;99.90;;;;;;5012273;28;20272;-25
2021/12/06 10:20:26;;;;;;;38.57;22.57;;;5.20;99.90;;;;;;5007416;28;20221;-26
2021/12/06 10:22:56;;;;;;;34.27;21.67;;;5.30;99.90;;;;;;5015435;28;20260;-26
2021/12/06 10:25:35;;;;;;;39.47;22.63;;;5.30;99.90;;;;;;5009336;28;20209;-26
2021/12/06 10:28:11;;;;;;;41.83;24.23;;;5.30;99.90;;;;;;5018334;28;20238;-26
2021/12/06 10:30:47;;;;;;;38.93;22.97;;;5.30;99.90;;;;;;5018318;28;20236;-26
2021/12/06 10:33:20;;;;;;;38.67;22.93;;;5.40;99.90;;;;;;5026754;28;20318;-26
2021/12/06 10:35:50;;;;;;;43.13;24.07;;;5.40;99.90;;;;;;5013034;28;20228;-26
2021/12/06 10:38:38;;;;;;;42.53;24.40;;;5.50;99.90;;;;;;5024261;28;20228;-26
2021/12/06 10:41:11;;;;;;;38.37;22.03;;;5.50;99.90;;;;;;5028351;28;20208;-26
2021/12/06 10:43:48;;;;;;;36.57;23.23;;;5.60;99.90;;;;;;5012897;28;20194;-26
2021/12/06 10:46:18;;;;;;;36.83;22.57;;;5.60;99.90;;;;;;5013186;28;20584;-26
2021/12/06 10:48:47;;;;;;;40.00;22.33;;;5.70;99.90;;;;;;5020302;28;20549;-26
2021/12/06 10:51:37;;;;;;;38.03;22.87;;;5.80;99.90;;;;;;5010760;28;20236;-26
2021/12/06 10:54:13;;;;;;;37.37;22.23;;;5.80;99.90;;;;;;5007886;28;20368;-26
2021/12/06 10:56:47;;;;;;;34.27;21.63;;;5.80;99.90;;;;;;5021039;28;20216;-26
2021/12/06 10:59:39;;;;;;;35.53;23.10;;;5.90;99.90;;;;;;5020783;28;20201;-26
2021/12/06 11:02:11;;;;;;;34.37;20.40;;;5.90;99.90;;;;;;5026962;28;20209;-26
2021/12/06 11:04:41;;;;;;;34.70;21.87;;;6.00;99.90;;;;;;5028034;28;20213;-26
2021/12/06 11:07:09;;;;;;;31.73;19.63;;;6.00;99.90;;;;;;5027277;28;20547;-26
2021/12/06 11:09:42;;;;;;;34.20;20.70;;;6.00;99.90;;;;;;5011414;28;20205;-26
2021/12/06 11:12:17;;;;;;;30.67;19.53;;;6.10;99.90;;;;;;5019495;28;20749;-26
2021/12/06 11:14:48;;;;;;;31.80;19.80;;;6.10;99.90;;;;;;5022122;28;20568;-26
2021/12/06 11:17:19;;;;;;;31.03;19.67;;;6.10;99.90;;;;;;5025812;28;20207;-26
2021/12/06 11:19:50;;;;;;;28.43;19.07;;;6.20;99.90;;;;;;5025428;28;20642;-26
2021/12/06 11:22:25;;;;;;;32.50;20.10;;;6.20;99.90;;;;;;5026605;28;20220;-26
2021/12/06 11:24:54;;;;;;;28.17;18.77;;;6.20;99.90;;;;;;5024715;28;20208;-26
2021/12/06 11:27:32;;;;;;;31.57;18.97;;;6.30;99.90;;;;;;5012594;28;20220;-26
2021/12/06 11:30:04;;;;;;;30.33;18.90;;;6.30;99.90;;;;;;5008772;28;20576;-26
2021/12/06 11:32:43;;;;;;;27.97;19.10;;;6.30;99.90;;;;;;5009078;28;20458;-26
2021/12/06 11:35:12;;;;;;;27.33;18.47;;;6.30;99.90;;;;;;5025260;28;20764;-26
2021/12/06 11:37:49;;;;;;;32.57;18.50;;;6.40;99.90;;;;;;5010859;28;20205;-26
2021/12/06 11:40:18;;;;;;;25.90;17.90;;;6.40;99.90;;;;;;5007352;28;20323;-26
2021/12/06 11:42:50;;;;;;;25.80;17.03;;;6.40;99.90;;;;;;5005700;28;20198;-27
2021/12/06 11:45:42;;;;;;;23.03;15.53;;;6.40;99.90;;;;;;5008465;28;20213;-26
2021/12/06 11:48:16;;;;;;;23.17;15.37;;;6.50;99.90;;;;;;5016706;28;20245;-26
2021/12/06 11:50:59;;;;;;;24.57;14.63;;;6.50;99.90;;;;;;5016211;28;20256;-26
2021/12/06 11:53:32;;;;;;;23.57;14.80;;;6.60;99.90;;;;;;5006465;28;20268;-26
2021/12/06 11:56:11;;;;;;;23.10;15.13;;;6.60;99.90;;;;;;5007449;28;20874;-26
2021/12/06 11:58:56;;;;;;;20.53;14.33;;;6.60;99.90;;;;;;5010437;28;20215;-26
2021/12/06 12:01:37;;;;;;;19.10;13.37;;;6.70;99.90;;;;;;5028350;28;20683;-26
2021/12/06 12:04:14;;;;;;;18.83;12.93;;;6.70;99.90;;;;;;5018355;28;20206;-26
2021/12/06 12:07:03;;;;;;;19.50;12.67;;;6.70;99.90;;;;;;5012512;28;20231;-26
2021/12/06 12:09:37;;;;;;;17.27;13.00;;;6.80;99.90;;;;;;5024415;28;20201;-26
2021/12/06 12:12:07;;;;;;;17.90;12.83;;;6.80;99.90;;;;;;5010048;28;20288;-26
2021/12/06 12:14:44;;;;;;;16.50;11.93;;;6.80;99.90;;;;;;5011830;28;20212;-26
2021/12/06 12:17:15;;;;;;;15.20;11.33;;;6.90;99.90;;;;;;5018005;28;20207;-26
2021/12/06 12:19:47;;;;;;;16.27;11.90;;;6.90;99.90;;;;;;5013495;28;20205;-26
2021/12/06 12:22:19;;;;;;;14.67;11.23;;;7.00;99.90;;;;;;5028133;28;20196;-26
2021/12/06 12:24:56;;;;;;;14.30;11.33;;;7.00;99.90;;;;;;5018906;28;20242;-26
2021/12/06 12:27:35;;;;;;;13.73;10.50;;;7.10;99.90;;;;;;5018276;28;20687;-26
2021/12/06 12:30:04;;;;;;;14.40;10.50;;;7.10;99.90;;;;;;5027474;28;20208;-26
2021/12/06 12:32:32;;;;;;;13.30;9.90;;;7.10;99.90;;;;;;5025384;28;20244;-26
2021/12/06 12:35:05;;;;;;;11.30;9.03;;;7.20;99.90;;;;;;5017588;28;20232;-26
2021/12/06 12:37:40;;;;;;;12.27;8.47;;;7.20;99.90;;;;;;5019536;28;20205;-26
2021/12/06 12:40:17;;;;;;;10.83;7.90;;;7.30;99.90;;;;;;5026042;28;20717;-26
2021/12/06 12:43:05;;;;;;;13.17;8.17;;;7.30;99.90;;;;;;5019709;28;20304;-26
2021/12/06 12:45:44;;;;;;;11.10;8.00;;;7.30;99.90;;;;;;5013119;28;20291;-26
2021/12/06 12:48:15;;;;;;;10.47;7.90;;;7.30;99.90;;;;;;5019066;28;20633;-26
2021/12/06 12:51:09;;;;;;;9.37;6.97;;;7.40;99.90;;;;;;5022285;28;20774;-26
2021/12/06 12:53:47;;;;;;;9.40;7.00;;;7.40;99.90;;;;;;5023145;28;20247;-26
2021/12/06 12:56:24;;;;;;;8.33;6.07;;;7.40;99.90;;;;;;5026078;28;20205;-26
2021/12/06 12:58:51;;;;;;;8.80;6.40;;;7.50;99.90;;;;;;5012683;28;20260;-26
2021/12/06 13:01:22;;;;;;;8.43;6.30;;;7.40;99.90;;;;;;5014370;28;20766;-26
2021/12/06 13:04:00;;;;;;;9.40;6.27;;;7.40;99.90;;;;;;5018498;28;20201;-26
2021/12/06 13:06:34;;;;;;;8.93;6.10;;;7.50;99.90;;;;;;5026936;28;20209;-26
2021/12/06 13:09:07;;;;;;;9.17;6.27;;;7.50;99.90;;;;;;5011881;28;20355;-26
2021/12/06 13:11:48;;;;;;;8.33;5.80;;;7.50;99.90;;;;;;5010341;28;20205;-26